Coleman, TX

3:09 AM CST on December 06, 2016 (GMT -0600)
Coleman Municipal

Weather History for KCOM - November, 2012

Change the Weather History Date:

Tuesday, November 6, 2012

  Actual Average (KABI) Record (KABI)
Temperature  
Mean Temperature 60 °F 59 °F  
Max Temperature 79 °F 70 °F 88 °F (1945)
Min Temperature 42 °F 47 °F 24 °F (1959)
Degree Days  
Heating Degree Days 4 8  
Month to date heating degree days 41  
Since 1 July heating degree days 145  
Cooling Degree Days 0 1  
Month to date cooling degree days 8  
Year to date cooling degree days 2397  
Growing Degree Days 10 (Base 50)    
Moisture  
Dew Point 38 °F    
Average Humidity 49    
Maximum Humidity 75    
Minimum Humidity 21    
Precipitation  
Precipitation 0.00 in 0.06 in 1.13 in (1925)
Month to date precipitation 0.38  
Year to date precipitation 22.56  
Sea Level Pressure  
Sea Level Pressure 30.14 in    
Wind  
Wind Speed 5 mph (West)    
Max Wind Speed 13 mph    
Max Gust Speed 16 mph    
Visibility 10 miles    
Events      
T = Trace of Precipitation, MM = Missing Value Source: NWS Daily Summary

Daily Weather History Graph

Daily Weather History Graph

Search for Another Location

Airport or City:

Trip Planner

Search our weather history database for the weather conditions in past years. The results will help you decide how hot, cold, wet, or windy it might be!

Date:

Astronomy

Nov. 06, 2012 Rise Set
Actual Time 6:58 AM CST 5:43 PM CST
Civil Twilight 6:33 AM CST 6:08 PM CST
Nautical Twilight 6:04 AM CST 6:38 PM CST
Astronomical Twilight 5:35 AM CST 7:06 PM CST
Moon No Moon Rise 12:54 PM CST
Length of Visible Light 11h 35m
Length of Day
10h 44m
Waning Gibbous, 53% of the Moon is Illuminated
Nov 6
Waning Gibbous
Nov 6
Last Quarter
Nov 13
New
Nov 20
First Quarter
Nov 28
Full

Hourly Weather History & Observations

Time (CST) Temp. Windchill Dew Point Humidity Pressure Visibility Wind Dir Wind Speed Gust Speed Precip Events Conditions
12:15 AM 51.3 °F - 36.9 °F 58% 30.15 in 10.0 mi NW 3.5 mph - N/A   Clear
12:35 AM 48.9 °F - 37.2 °F 64% 30.15 in 10.0 mi NNW 3.5 mph - N/A   Clear
12:55 AM 48.9 °F - 36.9 °F 63% 30.15 in 10.0 mi NW 3.5 mph - N/A   Clear
1:15 AM 47.3 °F - 37.0 °F 68% 30.14 in 10.0 mi NW 3.5 mph - N/A   Clear
1:35 AM 47.3 °F - 36.9 °F 67% 30.14 in 10.0 mi West 6.9 mph - N/A   Clear
1:55 AM 46.8 °F - 36.5 °F 67% 30.13 in 10.0 mi West 6.9 mph - N/A   Clear
2:15 AM 47.1 °F - 36.5 °F 67% 30.14 in 10.0 mi West 8.1 mph - N/A   Clear
2:35 AM 46.0 °F 43.1 °F 36.5 °F 69% 30.13 in 10.0 mi West 5.8 mph - N/A   Clear
2:55 AM 45.3 °F 43.0 °F 36.5 °F 71% 30.13 in 10.0 mi West 4.6 mph - N/A   Clear
3:15 AM 45.5 °F 41.8 °F 36.7 °F 71% 30.13 in 10.0 mi West 6.9 mph - N/A   Clear
3:35 AM 45.5 °F - 36.9 °F 72% 30.13 in 10.0 mi Calm Calm - N/A   Clear
3:55 AM 45.1 °F - 36.5 °F 72% 30.12 in 10.0 mi Calm Calm - N/A   Clear
4:15 AM 43.9 °F 42.3 °F 36.1 °F 74% 30.12 in 10.0 mi West 3.5 mph - N/A   Clear
4:35 AM 44.2 °F 40.3 °F 36.1 °F 73% 30.12 in 10.0 mi WNW 6.9 mph - N/A   Clear
4:55 AM 44.6 °F 43.1 °F 36.0 °F 72% 30.13 in 10.0 mi NW 3.5 mph - N/A   Clear
5:15 AM 43.7 °F - 36.0 °F 74% 30.13 in 10.0 mi Calm Calm - N/A   Clear
5:35 AM 43.7 °F - 35.8 °F 74% 30.13 in 10.0 mi Calm Calm - N/A   Clear
5:55 AM 42.4 °F - 34.5 °F 74% 30.15 in 10.0 mi Calm Calm - N/A   Clear
6:15 AM 43.5 °F 41.9 °F 35.6 °F 74% 30.15 in 10.0 mi WNW 3.5 mph - N/A   Clear
6:35 AM 43.2 °F 41.5 °F 35.6 °F 75% 30.15 in 10.0 mi WNW 3.5 mph - N/A   Clear
6:55 AM 43.5 °F 40.1 °F 35.6 °F 74% 30.16 in 10.0 mi WNW 5.8 mph - N/A   Clear
7:15 AM 43.7 °F 41.1 °F 35.6 °F 73% 30.17 in 10.0 mi WNW 4.6 mph - N/A   Clear
7:35 AM 44.4 °F 42.9 °F 36.0 °F 72% 30.17 in 10.0 mi West 3.5 mph - N/A   Clear
7:55 AM 46.6 °F - 36.7 °F 68% 30.18 in 7.0 mi Calm Calm - N/A   Clear
8:15 AM 50.2 °F - 37.0 °F 61% 30.19 in 10.0 mi Calm Calm - N/A   Clear
8:35 AM 52.0 °F - 37.6 °F 58% 30.20 in 10.0 mi Calm Calm - N/A   Clear
8:55 AM 55.0 °F - 37.8 °F 52% 30.20 in 10.0 mi Calm Calm - N/A   Clear
9:15 AM 58.8 °F - 36.5 °F 43% 30.19 in 10.0 mi South 3.5 mph - N/A   Clear
9:35 AM 61.7 °F - 36.5 °F 39% 30.20 in 10.0 mi SSW 5.8 mph - N/A   Clear
9:55 AM 63.7 °F - 34.7 °F 34% 30.20 in 10.0 mi South 8.1 mph - N/A   Clear
10:15 AM 65.3 °F - 34.9 °F 32% 30.20 in 10.0 mi SSW 8.1 mph - N/A   Clear
10:35 AM 66.2 °F - 37.0 °F 34% 30.20 in 10.0 mi SSW 8.1 mph - N/A   Clear
10:55 AM 68.2 °F - 36.9 °F 32% 30.20 in 10.0 mi SSW 8.1 mph - N/A   Clear
11:15 AM 69.6 °F - 36.0 °F 29% 30.19 in 10.0 mi SW 9.2 mph - N/A   Clear
11:35 AM 70.7 °F - 35.8 °F 28% 30.18 in 10.0 mi SW 9.2 mph - N/A   Clear
11:55 AM 72.0 °F - 36.0 °F 27% 30.18 in 10.0 mi WSW 8.1 mph - N/A   Clear
12:15 PM 73.0 °F - 35.8 °F 26% 30.17 in 10.0 mi WSW 11.5 mph - N/A   Clear
12:35 PM 74.1 °F - 36.3 °F 25% 30.16 in 10.0 mi West 10.4 mph 16.1 mph N/A   Clear
12:55 PM 75.4 °F - 36.3 °F 24% 30.15 in 10.0 mi West 11.5 mph - N/A   Clear
1:15 PM 75.9 °F - 36.7 °F 24% 30.14 in 10.0 mi WSW 10.4 mph - N/A   Clear
1:35 PM 77.0 °F - 36.1 °F 23% 30.12 in 10.0 mi WSW 8.1 mph - N/A   Clear
1:55 PM 77.5 °F - 36.1 °F 22% 30.12 in 10.0 mi WSW 12.7 mph - N/A   Clear
2:15 PM 78.1 °F - 36.5 °F 22% 30.11 in 10.0 mi West 6.9 mph - N/A   Clear
2:35 PM 78.3 °F - 36.1 °F 22% 30.11 in 10.0 mi West 9.2 mph - N/A   Clear
2:55 PM 78.6 °F - 35.8 °F 21% 30.11 in 10.0 mi West 9.2 mph - N/A   Clear
3:15 PM 79.0 °F - 35.6 °F 21% 30.10 in 10.0 mi NW 6.9 mph - N/A   Clear
3:35 PM 79.0 °F - 36.1 °F 21% 30.10 in 10.0 mi WSW 10.4 mph - N/A   Clear
3:55 PM 79.0 °F - 35.8 °F 21% 30.10 in 10.0 mi West 5.8 mph - N/A   Clear
4:15 PM 78.8 °F - 36.7 °F 22% 30.09 in 10.0 mi West 5.8 mph - N/A   Clear
4:35 PM 78.6 °F - 36.9 °F 22% 30.10 in 10.0 mi NW 4.6 mph - N/A   Clear
4:55 PM 78.1 °F - 36.7 °F 22% 30.10 in 10.0 mi NW 5.8 mph - N/A   Clear
5:15 PM 76.8 °F - 36.1 °F 23% 30.10 in 10.0 mi NNW 3.5 mph - N/A   Clear
5:35 PM 74.8 °F - 36.3 °F 25% 30.10 in 7.0 mi Calm Calm - N/A   Clear
5:55 PM 72.3 °F - 37.6 °F 28% 30.11 in 7.0 mi Calm Calm - N/A   Clear
6:15 PM 68.4 °F - 39.7 °F 35% 30.11 in 10.0 mi Calm Calm - N/A   Clear
6:35 PM 65.8 °F - 42.3 °F 42% 30.12 in 10.0 mi WSW 3.5 mph - N/A   Clear
6:55 PM 64.6 °F - 43.0 °F 45% 30.12 in 10.0 mi Calm Calm - N/A   Clear
7:15 PM 62.6 °F - 42.6 °F 48% 30.13 in 10.0 mi West 3.5 mph - N/A   Clear
7:35 PM 62.2 °F - 42.3 °F 48% 30.14 in 10.0 mi West 5.8 mph - N/A   Clear
7:55 PM 60.8 °F - 42.6 °F 51% 30.14 in 10.0 mi WNW 6.9 mph - N/A   Clear
8:15 PM 60.3 °F - 42.3 °F 51% 30.14 in 10.0 mi West 6.9 mph - N/A   Clear
8:35 PM 59.0 °F - 42.1 °F 53% 30.15 in 10.0 mi West 8.1 mph - N/A   Clear
8:55 PM 58.5 °F - 42.1 °F 55% 30.15 in 10.0 mi West 4.6 mph - N/A   Clear
9:15 PM 56.8 °F - 41.4 °F 56% 30.15 in 10.0 mi West 5.8 mph - N/A   Clear
9:35 PM 55.8 °F - 41.5 °F 59% 30.15 in 10.0 mi West 3.5 mph - N/A   Clear
9:55 PM 55.6 °F - 41.5 °F 59% 30.15 in 10.0 mi WNW 4.6 mph - N/A   Clear
10:15 PM 54.9 °F - 41.9 °F 62% 30.15 in 10.0 mi WNW 4.6 mph - N/A   Clear
10:35 PM 54.3 °F - 42.1 °F 63% 30.15 in 10.0 mi Calm Calm - N/A   Clear
10:55 PM 54.3 °F - 41.9 °F 63% 30.15 in 10.0 mi WNW 4.6 mph - N/A   Clear
11:15 PM 53.8 °F - 41.4 °F 63% 30.15 in 10.0 mi WNW 5.8 mph - N/A   Clear
11:35 PM 52.7 °F - 41.0 °F 64% 30.16 in 10.0 mi WNW 5.8 mph - N/A   Clear
11:55 PM 52.3 °F - 41.0 °F 65% 30.16 in 10.0 mi WNW 5.8 mph - N/A   Clear